Time;durP1;ratioP1;P1;durP2;ratioP2;P2;SDS_P1;SDS_P2;PMS_P1;PMS_P2;Temp;Humidity;BMP_temperature;BMP_pressure;BME280_temperature;BME280_humidity;BME280_pressure;Samples;Min_cycle;Max_cycle;Signal;HPM_P1;HPM_P2
2023/01/31 02:58:32;;;;;;;1999.90;999.90;;;;;;;;;;4943745;28;20742;-72
2023/01/31 03:01:19;;;;;;;1999.90;999.90;;;;;;;;;;4948316;29;20301;-71
2023/01/31 03:04:05;;;;;;;1999.90;999.90;;;;;;;;;;4954642;28;20293;-71
2023/01/31 03:07:00;;;;;;;1999.90;999.90;;;;;;;;;;4954674;29;20213;-71
2023/01/31 03:09:51;;;;;;;1999.90;999.90;;;;;;;;;;4935473;29;20218;-71
2023/01/31 03:12:43;;;;;;;1999.90;999.90;;;;;;;;;;4935480;29;20572;-71
2023/01/31 03:18:38;;;;;;;1999.90;999.90;;;;;;;;;;4950076;28;20245;-71
2023/01/31 03:21:26;;;;;;;1999.90;999.90;;;;;;;;;;4953263;29;20246;-71
2023/01/31 03:24:12;;;;;;;1999.90;999.90;;;;;;;;;;4951244;28;20278;-71
2023/01/31 03:26:58;;;;;;;1999.90;999.90;;;;;;;;;;4953186;29;20202;-70
2023/01/31 03:29:45;;;;;;;1999.90;999.90;;;;;;;;;;4954270;29;20201;-68
2023/01/31 03:32:32;;;;;;;1999.90;999.90;;;;;;;;;;4953951;29;20260;-68
2023/01/31 03:35:18;;;;;;;1999.90;999.90;;;;;;;;;;4953942;28;20277;-70
2023/01/31 03:38:05;;;;;;;1999.90;999.90;;;;;;;;;;4953837;29;20272;-71
2023/01/31 03:40:53;;;;;;;1999.90;999.90;;;;;;;;;;4953044;29;20304;-69
2023/01/31 03:43:43;;;;;;;1999.90;999.90;;;;;;;;;;4952936;29;20249;-67
2023/01/31 03:46:30;;;;;;;1999.90;999.90;;;;;;;;;;4952229;29;20216;-71
2023/01/31 03:49:16;;;;;;;1999.90;999.90;;;;;;;;;;4952843;29;20268;-70
2023/01/31 03:52:04;;;;;;;1999.90;999.90;;;;;;;;;;4953619;29;20209;-71
2023/01/31 03:54:52;;;;;;;1999.90;999.90;;;;;;;;;;4953242;28;20240;-71
2023/01/31 03:57:39;;;;;;;1999.90;999.90;;;;;;;;;;4953964;29;20209;-71
2023/01/31 04:00:25;;;;;;;1999.90;999.90;;;;;;;;;;4953992;29;20603;-72
2023/01/31 04:03:14;;;;;;;1999.90;999.90;;;;;;;;;;4952973;29;20224;-68
2023/01/31 04:05:59;;;;;;;1999.90;999.90;;;;;;;;;;4952910;28;20344;-69
2023/01/31 04:08:44;;;;;;;1999.90;999.90;;;;;;;;;;4953251;29;20211;-71
2023/01/31 04:11:29;;;;;;;1999.90;999.90;;;;;;;;;;4952715;29;20573;-68
2023/01/31 04:14:14;;;;;;;1999.90;999.90;;;;;;;;;;4952216;28;20800;-70
2023/01/31 04:16:59;;;;;;;1999.90;999.90;;;;;;;;;;4953592;29;20221;-71
2023/01/31 04:19:46;;;;;;;1999.90;999.90;;;;;;;;;;4937775;29;20289;-71
2023/01/31 04:22:31;;;;;;;1999.90;999.90;;;;;;;;;;4934029;29;20225;-71
2023/01/31 04:25:16;;;;;;;1999.90;999.90;;;;;;;;;;4934372;29;20242;-71
2023/01/31 04:28:01;;;;;;;1999.90;999.90;;;;;;;;;;4934267;29;20215;-71
2023/01/31 04:30:46;;;;;;;1999.90;999.90;;;;;;;;;;4936595;29;20209;-71
2023/01/31 04:33:31;;;;;;;1999.90;999.90;;;;;;;;;;4938093;29;20209;-71
2023/01/31 04:36:17;;;;;;;1999.90;999.90;;;;;;;;;;4937713;29;20440;-71
2023/01/31 04:39:02;;;;;;;1999.90;999.90;;;;;;;;;;4938049;29;20293;-71
2023/01/31 04:41:47;;;;;;;1999.90;999.90;;;;;;;;;;4938234;29;20314;-71
2023/01/31 04:44:32;;;;;;;1999.90;999.90;;;;;;;;;;4937445;29;20237;-71
2023/01/31 04:47:17;;;;;;;1999.90;999.90;;;;;;;;;;4919918;29;20704;-71
2023/01/31 04:50:02;;;;;;;1999.90;999.90;;;;;;;;;;4938164;29;20211;-71
2023/01/31 04:52:50;;;;;;;1999.90;999.90;;;;;;;;;;4937809;29;20242;-71
2023/01/31 04:55:36;;;;;;;1999.90;999.90;;;;;;;;;;4937575;29;20241;-71
2023/01/31 04:58:21;;;;;;;1999.90;999.90;;;;;;;;;;4937177;29;20337;-71
2023/01/31 05:01:06;;;;;;;1999.90;999.90;;;;;;;;;;4937927;29;20210;-71
2023/01/31 05:03:51;;;;;;;1999.90;999.90;;;;;;;;;;4937570;29;20296;-71
2023/01/31 05:06:35;;;;;;;1999.90;999.90;;;;;;;;;;4937629;29;20580;-71
2023/01/31 05:09:23;;;;;;;1999.90;999.90;;;;;;;;;;4937844;29;20210;-71
2023/01/31 05:12:08;;;;;;;1999.90;999.90;;;;;;;;;;4937125;29;20302;-71
2023/01/31 05:14:53;;;;;;;1999.90;999.90;;;;;;;;;;4937389;29;20985;-71
2023/01/31 05:17:38;;;;;;;1999.90;999.90;;;;;;;;;;4936880;29;20205;-71
2023/01/31 05:20:23;;;;;;;1999.90;999.90;;;;;;;;;;4937603;29;20209;-71
2023/01/31 05:23:09;;;;;;;1999.90;999.90;;;;;;;;;;4936837;29;20229;-71
2023/01/31 05:25:55;;;;;;;1999.90;999.90;;;;;;;;;;4937163;29;20230;-71
2023/01/31 05:28:40;;;;;;;1999.90;999.90;;;;;;;;;;4937007;29;20269;-71
2023/01/31 05:31:25;;;;;;;1999.90;999.90;;;;;;;;;;4937103;29;20209;-71
2023/01/31 05:34:14;;;;;;;1999.90;999.90;;;;;;;;;;4937223;29;20215;-71
2023/01/31 05:36:59;;;;;;;1999.90;999.90;;;;;;;;;;4936926;29;20628;-71
2023/01/31 05:39:44;;;;;;;1999.90;999.90;;;;;;;;;;4937251;29;20577;-71
2023/01/31 05:42:30;;;;;;;1999.90;999.90;;;;;;;;;;4935605;29;20230;-71
2023/01/31 05:45:15;;;;;;;1999.90;999.90;;;;;;;;;;4936543;29;20661;-71
2023/01/31 05:48:00;;;;;;;1999.90;999.90;;;;;;;;;;4936532;29;20805;-71
2023/01/31 05:50:45;;;;;;;1999.90;999.90;;;;;;;;;;4936794;29;20830;-71
2023/01/31 05:53:30;;;;;;;1999.90;999.90;;;;;;;;;;4917972;29;20243;-71
2023/01/31 05:56:15;;;;;;;1999.90;999.90;;;;;;;;;;4922233;29;20613;-71
2023/01/31 05:59:02;;;;;;;1999.90;999.90;;;;;;;;;;4936888;29;20206;-71
2023/01/31 06:01:47;;;;;;;1999.90;999.90;;;;;;;;;;4936064;29;20215;-71
2023/01/31 06:04:32;;;;;;;1999.90;999.90;;;;;;;;;;4936447;29;20229;-71
2023/01/31 06:07:17;;;;;;;1999.90;999.90;;;;;;;;;;4936404;29;20705;-71
2023/01/31 06:10:02;;;;;;;1999.90;999.90;;;;;;;;;;4936412;29;20324;-71
2023/01/31 06:12:47;;;;;;;1999.90;999.90;;;;;;;;;;4935968;29;20205;-71
2023/01/31 06:15:34;;;;;;;1999.90;999.90;;;;;;;;;;4935939;29;20727;-71
2023/01/31 06:18:18;;;;;;;1999.90;999.90;;;;;;;;;;4936476;29;20251;-71
2023/01/31 06:21:03;;;;;;;1999.90;999.90;;;;;;;;;;4935414;29;20425;-72
2023/01/31 06:23:49;;;;;;;1999.90;999.90;;;;;;;;;;4917088;29;20238;-71
2023/01/31 06:26:33;;;;;;;1999.90;999.90;;;;;;;;;;4934617;29;20208;-72
2023/01/31 06:29:18;;;;;;;1999.90;999.90;;;;;;;;;;4936044;29;20225;-71
2023/01/31 06:32:05;;;;;;;1999.90;999.90;;;;;;;;;;4936302;29;20678;-71
2023/01/31 06:34:50;;;;;;;1999.90;999.90;;;;;;;;;;4935875;29;20611;-71
2023/01/31 06:37:34;;;;;;;1999.90;999.90;;;;;;;;;;4937279;29;20571;-71
2023/01/31 06:40:19;;;;;;;1999.90;999.90;;;;;;;;;;4944109;29;20213;-71
2023/01/31 06:43:04;;;;;;;1999.90;999.90;;;;;;;;;;4955048;29;20221;-69
2023/01/31 06:45:49;;;;;;;1999.90;999.90;;;;;;;;;;4954798;28;20719;-71
2023/01/31 06:48:36;;;;;;;1999.90;999.90;;;;;;;;;;4942500;29;20784;-71
2023/01/31 06:51:21;;;;;;;1999.90;999.90;;;;;;;;;;4955076;29;20209;-71
2023/01/31 06:54:06;;;;;;;1999.90;999.90;;;;;;;;;;4954628;28;20186;-71
2023/01/31 06:56:50;;;;;;;1999.90;999.90;;;;;;;;;;4954919;29;20700;-71
2023/01/31 06:59:35;;;;;;;1999.90;999.90;;;;;;;;;;4954866;29;20230;-70
2023/01/31 07:02:20;;;;;;;1999.90;999.90;;;;;;;;;;4954694;29;20232;-71
2023/01/31 07:05:07;;;;;;;1999.90;999.90;;;;;;;;;;4954453;28;20233;-70
2023/01/31 07:07:52;;;;;;;1999.90;999.90;;;;;;;;;;4954741;29;20289;-71
2023/01/31 07:10:37;;;;;;;1999.90;999.90;;;;;;;;;;4946911;29;20222;-69
2023/01/31 07:13:22;;;;;;;1999.90;999.90;;;;;;;;;;4953540;29;20671;-71
2023/01/31 07:16:07;;;;;;;1999.90;999.90;;;;;;;;;;4946675;29;20726;-71
2023/01/31 07:18:53;;;;;;;1999.90;999.90;;;;;;;;;;4952471;29;20214;-71
2023/01/31 07:21:40;;;;;;;1999.90;999.90;;;;;;;;;;4953146;29;20205;-72
2023/01/31 07:24:25;;;;;;;1999.90;999.90;;;;;;;;;;4952527;28;20375;-68
2023/01/31 07:27:12;;;;;;;1999.90;999.90;;;;;;;;;;4949839;29;20413;-71
2023/01/31 07:29:57;;;;;;;1999.90;999.90;;;;;;;;;;4953168;29;20217;-71
2023/01/31 07:32:41;;;;;;;1999.90;999.90;;;;;;;;;;4951344;29;20710;-71
2023/01/31 07:35:27;;;;;;;1999.90;999.90;;;;;;;;;;4952549;28;20700;-71
2023/01/31 07:38:13;;;;;;;1999.90;999.90;;;;;;;;;;4953096;29;20216;-71
2023/01/31 07:40:59;;;;;;;1999.90;999.90;;;;;;;;;;4953214;29;20262;-72
2023/01/31 07:43:44;;;;;;;1999.90;999.90;;;;;;;;;;4952252;29;20363;-70
2023/01/31 07:46:29;;;;;;;1999.90;999.90;;;;;;;;;;4938221;29;20329;-70
2023/01/31 07:49:14;;;;;;;1999.90;999.90;;;;;;;;;;4949856;29;20262;-70
2023/01/31 07:51:59;;;;;;;1999.90;999.90;;;;;;;;;;4952677;29;20214;-70
2023/01/31 07:54:45;;;;;;;1999.90;999.90;;;;;;;;;;4948981;28;20362;-70
2023/01/31 07:57:30;;;;;;;1999.90;999.90;;;;;;;;;;4915734;29;20211;-71
2023/01/31 08:03:33;;;;;;;1999.90;999.90;;;;;;;;;;4917266;29;20232;-71
2023/01/31 08:06:18;;;;;;;1999.90;999.90;;;;;;;;;;4932466;29;20394;-71
2023/01/31 08:09:03;;;;;;;1999.90;999.90;;;;;;;;;;4940509;29;20702;-70
2023/01/31 08:11:50;;;;;;;1999.90;999.90;;;;;;;;;;4952349;29;20239;-70
2023/01/31 08:14:35;;;;;;;1999.90;999.90;;;;;;;;;;4951942;28;20834;-70
2023/01/31 08:17:20;;;;;;;1999.90;999.90;;;;;;;;;;4952671;29;20260;-69
2023/01/31 08:20:06;;;;;;;1999.90;999.90;;;;;;;;;;4949629;29;20219;-70
2023/01/31 08:22:50;;;;;;;1999.90;999.90;;;;;;;;;;4953583;29;20226;-70
2023/01/31 08:25:35;;;;;;;1999.90;999.90;;;;;;;;;;4935155;29;20328;-69
2023/01/31 08:28:21;;;;;;;1999.90;999.90;;;;;;;;;;4950895;29;20211;-70
2023/01/31 08:31:06;;;;;;;1999.90;999.90;;;;;;;;;;4951527;29;20306;-70
2023/01/31 08:33:52;;;;;;;1999.90;999.90;;;;;;;;;;4950234;29;20696;-70
2023/01/31 08:36:37;;;;;;;1999.90;999.90;;;;;;;;;;4945714;29;20720;-70
2023/01/31 08:39:22;;;;;;;1999.90;999.90;;;;;;;;;;4951686;29;20214;-70
2023/01/31 08:42:07;;;;;;;1999.90;999.90;;;;;;;;;;4952403;29;20218;-70
2023/01/31 08:44:53;;;;;;;1999.90;999.90;;;;;;;;;;4951680;28;20237;-71
2023/01/31 08:47:39;;;;;;;1999.90;999.90;;;;;;;;;;4952408;29;20314;-70
2023/01/31 08:50:24;;;;;;;1999.90;999.90;;;;;;;;;;4946779;29;20229;-70
2023/01/31 08:53:09;;;;;;;1999.90;999.90;;;;;;;;;;4942959;29;20211;-70
2023/01/31 08:55:57;;;;;;;1999.90;999.90;;;;;;;;;;4948873;28;20241;-71
2023/01/31 08:58:43;;;;;;;1999.90;999.90;;;;;;;;;;4949684;29;20311;-71
2023/01/31 09:01:31;;;;;;;1999.90;999.90;;;;;;;;;;4953239;29;20220;-71
2023/01/31 09:04:16;;;;;;;1999.90;999.90;;;;;;;;;;4937856;29;20311;-71
2023/01/31 09:07:01;;;;;;;1999.90;999.90;;;;;;;;;;4921460;29;20698;-71
2023/01/31 09:09:46;;;;;;;1999.90;999.90;;;;;;;;;;4934255;29;20207;-70
2023/01/31 09:12:31;;;;;;;1999.90;999.90;;;;;;;;;;4952057;29;20218;-71
2023/01/31 09:15:17;;;;;;;1999.90;999.90;;;;;;;;;;4948054;28;21079;-70
2023/01/31 09:18:04;;;;;;;1999.90;999.90;;;;;;;;;;4955291;29;20287;-71
2023/01/31 09:20:49;;;;;;;1999.90;999.90;;;;;;;;;;4955336;29;20271;-71
2023/01/31 09:23:35;;;;;;;1999.90;999.90;;;;;;;;;;4955171;29;20270;-72
2023/01/31 09:26:20;;;;;;;1999.90;999.90;;;;;;;;;;4954550;28;20347;-72
2023/01/31 09:29:05;;;;;;;1999.90;999.90;;;;;;;;;;4952853;29;20277;-71
2023/01/31 09:31:50;;;;;;;1999.90;999.90;;;;;;;;;;4955314;29;20710;-71
2023/01/31 09:34:36;;;;;;;1999.90;999.90;;;;;;;;;;4954744;28;20351;-71
2023/01/31 09:37:21;;;;;;;1999.90;999.90;;;;;;;;;;4949452;29;20267;-71
2023/01/31 09:40:06;;;;;;;1999.90;999.90;;;;;;;;;;4954951;29;20635;-71
2023/01/31 09:42:52;;;;;;;1999.90;999.90;;;;;;;;;;4951587;29;20512;-70
2023/01/31 09:45:41;;;;;;;1999.90;999.90;;;;;;;;;;4954599;28;20781;-71
2023/01/31 09:48:28;;;;;;;1999.90;999.90;;;;;;;;;;4953220;29;20224;-70
2023/01/31 09:51:16;;;;;;;1999.90;999.90;;;;;;;;;;4953614;29;20743;-70
2023/01/31 09:54:02;;;;;;;1999.90;999.90;;;;;;;;;;4943027;29;20703;-69
2023/01/31 09:56:51;;;;;;;1999.90;999.90;;;;;;;;;;4935698;29;20211;-70
2023/01/31 09:59:42;;;;;;;1999.90;999.90;;;;;;;;;;4935265;29;20209;-72
2023/01/31 10:02:51;;;;;;;1999.90;999.90;;;;;;;;;;4935251;29;20731;-70
2023/01/31 10:05:39;;;;;;;1999.90;999.90;;;;;;;;;;4924417;29;20321;-69
2023/01/31 10:08:35;;;;;;;1999.90;999.90;;;;;;;;;;4935851;29;20702;-70
2023/01/31 10:11:25;;;;;;;1999.90;999.90;;;;;;;;;;4935508;29;20209;-70
2023/01/31 10:14:18;;;;;;;1999.90;999.90;;;;;;;;;;4936583;29;20332;-69
2023/01/31 10:17:06;;;;;;;1999.90;999.90;;;;;;;;;;4936634;29;20204;-69
2023/01/31 10:19:53;;;;;;;1999.90;999.90;;;;;;;;;;4936582;29;20215;-69
2023/01/31 10:22:39;;;;;;;1999.90;999.90;;;;;;;;;;4936543;29;20210;-68
2023/01/31 10:25:27;;;;;;;1999.90;999.90;;;;;;;;;;4936084;29;20232;-70
2023/01/31 10:28:15;;;;;;;1999.90;999.90;;;;;;;;;;4935829;29;20332;-70
2023/01/31 10:31:02;;;;;;;1999.90;999.90;;;;;;;;;;4936358;29;20301;-70
2023/01/31 10:33:49;;;;;;;1999.90;999.90;;;;;;;;;;4936072;29;20203;-70
2023/01/31 10:36:36;;;;;;;1999.90;999.90;;;;;;;;;;4936026;29;20311;-69
2023/01/31 10:39:22;;;;;;;1999.90;999.90;;;;;;;;;;4936113;29;20212;-69
2023/01/31 10:42:13;;;;;;;1999.90;999.90;;;;;;;;;;4936206;29;20707;-70
2023/01/31 10:45:01;;;;;;;1999.90;999.90;;;;;;;;;;4935330;29;20247;-70
2023/01/31 10:47:49;;;;;;;1999.90;999.90;;;;;;;;;;4936115;29;20745;-69
2023/01/31 10:50:39;;;;;;;1999.90;999.90;;;;;;;;;;4935957;29;20232;-70
2023/01/31 10:53:34;;;;;;;1999.90;999.90;;;;;;;;;;4934967;29;20477;-70
2023/01/31 10:56:22;;;;;;;1999.90;999.90;;;;;;;;;;4935471;29;20232;-71
2023/01/31 10:59:12;;;;;;;1999.90;999.90;;;;;;;;;;4935850;29;20212;-70
2023/01/31 11:01:57;;;;;;;1999.90;999.90;;;;;;;;;;4936063;29;20769;-70
2023/01/31 11:04:42;;;;;;;1999.90;999.90;;;;;;;;;;4935074;29;20269;-70
2023/01/31 11:07:29;;;;;;;1999.90;999.90;;;;;;;;;;4935566;29;20972;-70
2023/01/31 11:10:22;;;;;;;1999.90;999.90;;;;;;;;;;4935677;29;20316;-70
2023/01/31 11:13:17;;;;;;;1999.90;999.90;;;;;;;;;;4935602;29;20340;-68
2023/01/31 11:16:06;;;;;;;1999.90;999.90;;;;;;;;;;4935260;29;20227;-69
2023/01/31 11:18:52;;;;;;;1999.90;999.90;;;;;;;;;;4935274;29;20205;-70
2023/01/31 11:21:38;;;;;;;1999.90;999.90;;;;;;;;;;4935571;29;20296;-70
2023/01/31 11:24:24;;;;;;;1999.90;999.90;;;;;;;;;;4934895;29;20249;-70
2023/01/31 11:27:12;;;;;;;1999.90;999.90;;;;;;;;;;4935477;29;20212;-70
2023/01/31 11:29:59;;;;;;;1999.90;999.90;;;;;;;;;;4935157;29;20212;-70
2023/01/31 11:32:46;;;;;;;1999.90;999.90;;;;;;;;;;4935982;29;20217;-70
2023/01/31 11:35:32;;;;;;;1999.90;999.90;;;;;;;;;;4934944;29;20224;-70
2023/01/31 11:38:21;;;;;;;1999.90;999.90;;;;;;;;;;4935429;29;20220;-69
2023/01/31 11:41:26;;;;;;;1999.90;999.90;;;;;;;;;;4934613;29;20218;-70
2023/01/31 11:44:13;;;;;;;1999.90;999.90;;;;;;;;;;4934907;29;20360;-70
2023/01/31 11:47:01;;;;;;;1999.90;999.90;;;;;;;;;;4935162;29;20220;-70
2023/01/31 11:49:49;;;;;;;1999.90;999.90;;;;;;;;;;4934935;29;20208;-70
2023/01/31 11:52:34;;;;;;;1999.90;999.90;;;;;;;;;;4935064;29;20597;-70
2023/01/31 11:55:19;;;;;;;1999.90;999.90;;;;;;;;;;4934673;29;20232;-69
2023/01/31 11:58:09;;;;;;;1999.90;999.90;;;;;;;;;;4934653;29;20209;-70
2023/01/31 12:00:56;;;;;;;1999.90;999.90;;;;;;;;;;4934944;29;20222;-70
2023/01/31 12:03:45;;;;;;;1999.90;999.90;;;;;;;;;;4934794;29;20593;-70
2023/01/31 12:06:33;;;;;;;1999.90;999.90;;;;;;;;;;4934620;29;20230;-70
2023/01/31 12:09:19;;;;;;;1999.90;999.90;;;;;;;;;;4934950;29;20296;-69
2023/01/31 12:12:19;;;;;;;1999.90;999.90;;;;;;;;;;4934930;29;20682;-70
2023/01/31 12:15:12;;;;;;;1999.90;999.90;;;;;;;;;;4934489;29;20758;-70
2023/01/31 12:17:58;;;;;;;1999.90;999.90;;;;;;;;;;4934809;29;20212;-70
2023/01/31 12:20:48;;;;;;;1999.90;999.90;;;;;;;;;;4934848;29;20582;-70
2023/01/31 12:23:40;;;;;;;1999.90;999.90;;;;;;;;;;4934739;29;20216;-70
2023/01/31 12:26:30;;;;;;;1999.90;999.90;;;;;;;;;;4934528;29;20334;-70
2023/01/31 12:29:24;;;;;;;1999.90;999.90;;;;;;;;;;4934401;29;20307;-70
2023/01/31 12:32:16;;;;;;;1999.90;999.90;;;;;;;;;;4934694;29;20703;-70
2023/01/31 12:35:12;;;;;;;1999.90;999.90;;;;;;;;;;4933656;29;20411;-69
2023/01/31 12:38:03;;;;;;;1999.90;999.90;;;;;;;;;;4934632;29;20201;-69
2023/01/31 12:40:55;;;;;;;1999.90;999.90;;;;;;;;;;4934371;29;20207;-69
2023/01/31 12:43:46;;;;;;;1999.90;999.90;;;;;;;;;;4934509;29;20334;-70
2023/01/31 12:46:35;;;;;;;1999.90;999.90;;;;;;;;;;4934368;29;20294;-69
2023/01/31 12:49:34;;;;;;;1999.90;999.90;;;;;;;;;;4934561;29;20333;-70
2023/01/31 12:52:22;;;;;;;1999.90;999.90;;;;;;;;;;4937360;29;20194;-68
2023/01/31 12:55:15;;;;;;;1999.90;999.90;;;;;;;;;;4937741;29;20551;-70
2023/01/31 12:58:09;;;;;;;1999.90;999.90;;;;;;;;;;4938091;29;20213;-70
2023/01/31 13:01:01;;;;;;;1999.90;999.90;;;;;;;;;;4937155;29;20492;-70
2023/01/31 13:03:54;;;;;;;1999.90;999.90;;;;;;;;;;4937876;29;20583;-70
2023/01/31 13:06:41;;;;;;;1999.90;999.90;;;;;;;;;;4937762;29;20310;-69
2023/01/31 13:09:28;;;;;;;1999.90;999.90;;;;;;;;;;4937946;29;20213;-69
2023/01/31 13:12:15;;;;;;;1999.90;999.90;;;;;;;;;;4937845;29;20723;-69
2023/01/31 13:15:03;;;;;;;1999.90;999.90;;;;;;;;;;4937388;29;20276;-69
2023/01/31 13:17:54;;;;;;;1999.90;999.90;;;;;;;;;;4937670;29;20591;-70
2023/01/31 13:20:40;;;;;;;1999.90;999.90;;;;;;;;;;4937713;29;20632;-70
2023/01/31 13:23:30;;;;;;;1999.90;999.90;;;;;;;;;;4937637;29;20759;-70
2023/01/31 13:26:19;;;;;;;1999.90;999.90;;;;;;;;;;4936969;29;20233;-70
2023/01/31 13:29:07;;;;;;;1999.90;999.90;;;;;;;;;;4937506;29;20216;-69
2023/01/31 13:31:57;;;;;;;1999.90;999.90;;;;;;;;;;4937301;29;20264;-69
2023/01/31 13:34:44;;;;;;;1999.90;999.90;;;;;;;;;;4937038;29;20309;-70
2023/01/31 13:37:30;;;;;;;1999.90;999.90;;;;;;;;;;4937319;29;20206;-69
2023/01/31 13:40:18;;;;;;;1999.90;999.90;;;;;;;;;;4937087;29;20205;-70
2023/01/31 13:43:08;;;;;;;1999.90;999.90;;;;;;;;;;4937239;29;20216;-70
2023/01/31 13:45:56;;;;;;;1999.90;999.90;;;;;;;;;;4936730;29;20347;-70
2023/01/31 13:48:45;;;;;;;1999.90;999.90;;;;;;;;;;4937170;29;20225;-70
2023/01/31 13:51:33;;;;;;;1999.90;999.90;;;;;;;;;;4937168;29;20297;-69
2023/01/31 13:54:20;;;;;;;1999.90;999.90;;;;;;;;;;4936549;29;20220;-69
2023/01/31 13:57:06;;;;;;;1999.90;999.90;;;;;;;;;;4937039;29;20289;-69
2023/01/31 13:59:53;;;;;;;1999.90;999.90;;;;;;;;;;4936944;29;20573;-70
2023/01/31 14:02:38;;;;;;;1999.90;999.90;;;;;;;;;;4935925;29;20206;-70
2023/01/31 14:05:41;;;;;;;1999.90;999.90;;;;;;;;;;4936330;29;20327;-70
2023/01/31 14:08:38;;;;;;;1999.90;999.90;;;;;;;;;;4936722;29;20705;-70
2023/01/31 14:11:33;;;;;;;1999.90;999.90;;;;;;;;;;4936714;29;20344;-70
2023/01/31 14:14:21;;;;;;;1999.90;999.90;;;;;;;;;;4936361;29;20217;-68
2023/01/31 14:17:09;;;;;;;1999.90;999.90;;;;;;;;;;4936629;29;20216;-70
2023/01/31 14:20:02;;;;;;;1999.90;999.90;;;;;;;;;;4936556;29;20286;-70
2023/01/31 14:23:06;;;;;;;1999.90;999.90;;;;;;;;;;4936551;29;20292;-69
2023/01/31 14:25:53;;;;;;;1999.90;999.90;;;;;;;;;;4935796;29;20224;-69
2023/01/31 14:28:43;;;;;;;1999.90;999.90;;;;;;;;;;4936425;29;20213;-70
2023/01/31 14:31:28;;;;;;;1999.90;999.90;;;;;;;;;;4936325;29;20337;-70
2023/01/31 14:34:15;;;;;;;1999.90;999.90;;;;;;;;;;4936158;29;20553;-69
2023/01/31 14:37:08;;;;;;;1999.90;999.90;;;;;;;;;;4936348;29;20213;-69
2023/01/31 14:40:02;;;;;;;1999.90;999.90;;;;;;;;;;4936349;29;20209;-69
2023/01/31 14:42:58;;;;;;;1999.90;999.90;;;;;;;;;;4935244;29;20892;-70
2023/01/31 14:46:04;;;;;;;1999.90;999.90;;;;;;;;;;4935589;29;20225;-68
2023/01/31 14:49:03;;;;;;;1999.90;999.90;;;;;;;;;;4913960;29;20225;-69
2023/01/31 14:51:57;;;;;;;1999.90;999.90;;;;;;;;;;4936010;29;20300;-69
2023/01/31 14:54:52;;;;;;;1999.90;999.90;;;;;;;;;;4935528;29;20776;-70
2023/01/31 14:57:40;;;;;;;1999.90;999.90;;;;;;;;;;4936178;29;20285;-70
2023/01/31 15:00:28;;;;;;;1999.90;999.90;;;;;;;;;;4935849;29;20569;-70
2023/01/31 15:03:16;;;;;;;1999.90;999.90;;;;;;;;;;4935805;29;20213;-70
2023/01/31 15:06:10;;;;;;;1999.90;999.90;;;;;;;;;;4935243;29;20235;-68
2023/01/31 15:09:10;;;;;;;1999.90;999.90;;;;;;;;;;4935484;29;20326;-70
2023/01/31 15:11:56;;;;;;;1999.90;999.90;;;;;;;;;;4935520;29;20198;-69
2023/01/31 15:14:44;;;;;;;1999.90;999.90;;;;;;;;;;4935015;29;20349;-69
2023/01/31 15:17:32;;;;;;;1999.90;999.90;;;;;;;;;;4935285;29;20762;-69
2023/01/31 15:20:19;;;;;;;1999.90;999.90;;;;;;;;;;4935385;29;20214;-70
2023/01/31 15:23:05;;;;;;;1999.90;999.90;;;;;;;;;;4935460;29;20332;-70
2023/01/31 15:25:51;;;;;;;1999.90;999.90;;;;;;;;;;4935168;29;20312;-70
2023/01/31 15:28:38;;;;;;;1999.90;999.90;;;;;;;;;;4935048;29;20208;-70
2023/01/31 15:31:25;;;;;;;1999.90;999.90;;;;;;;;;;4935318;29;20205;-70
2023/01/31 15:34:15;;;;;;;1999.90;999.90;;;;;;;;;;4935144;29;20296;-70
2023/01/31 15:37:04;;;;;;;1999.90;999.90;;;;;;;;;;4935233;29;20616;-70
2023/01/31 15:39:52;;;;;;;1999.90;999.90;;;;;;;;;;4935214;29;20254;-70
2023/01/31 15:42:37;;;;;;;1999.90;999.90;;;;;;;;;;4935181;29;20213;-70
2023/01/31 15:45:27;;;;;;;1999.90;999.90;;;;;;;;;;4934673;29;20785;-70
2023/01/31 15:48:13;;;;;;;1999.90;999.90;;;;;;;;;;4935246;29;20205;-70
2023/01/31 15:51:00;;;;;;;1999.90;999.90;;;;;;;;;;4935191;29;20212;-70
2023/01/31 15:53:46;;;;;;;1999.90;999.90;;;;;;;;;;4935189;29;20206;-70
2023/01/31 15:56:32;;;;;;;1999.90;999.90;;;;;;;;;;4934692;29;20213;-69
2023/01/31 15:59:17;;;;;;;1999.90;999.90;;;;;;;;;;4934224;29;20786;-70
2023/01/31 16:02:04;;;;;;;1999.90;999.90;;;;;;;;;;4934795;29;20208;-69
2023/01/31 16:04:49;;;;;;;1999.90;999.90;;;;;;;;;;4934724;29;20237;-68
2023/01/31 16:07:35;;;;;;;1999.90;999.90;;;;;;;;;;4934991;29;20209;-70
2023/01/31 16:10:20;;;;;;;1999.90;999.90;;;;;;;;;;4935112;29;20268;-70
2023/01/31 16:13:05;;;;;;;1999.90;999.90;;;;;;;;;;4935463;29;20692;-70
2023/01/31 16:15:51;;;;;;;1999.90;999.90;;;;;;;;;;4934677;29;20233;-70
2023/01/31 16:18:36;;;;;;;1999.90;999.90;;;;;;;;;;4935208;29;20232;-70
2023/01/31 16:21:26;;;;;;;1999.90;999.90;;;;;;;;;;4934754;29;20209;-69
2023/01/31 16:24:15;;;;;;;1999.90;999.90;;;;;;;;;;4933509;29;20400;-70
2023/01/31 16:27:05;;;;;;;1999.90;999.90;;;;;;;;;;4936813;29;20229;-70
2023/01/31 16:29:51;;;;;;;1999.90;999.90;;;;;;;;;;4938552;29;20234;-70
2023/01/31 16:32:39;;;;;;;1999.90;999.90;;;;;;;;;;4938522;29;20637;-70
2023/01/31 16:35:25;;;;;;;1999.90;999.90;;;;;;;;;;4938093;29;20224;-70
2023/01/31 16:38:17;;;;;;;1999.90;999.90;;;;;;;;;;4940252;29;20297;-71
2023/01/31 16:41:08;;;;;;;1999.90;999.90;;;;;;;;;;4941733;29;20205;-70
2023/01/31 16:43:53;;;;;;;1999.90;999.90;;;;;;;;;;4940212;29;20201;-71
2023/01/31 16:46:39;;;;;;;1999.90;999.90;;;;;;;;;;4937949;29;20327;-70
2023/01/31 16:49:25;;;;;;;1999.90;999.90;;;;;;;;;;4938277;29;20209;-71
2023/01/31 16:52:15;;;;;;;1999.90;999.90;;;;;;;;;;4938252;29;20700;-71
2023/01/31 16:55:01;;;;;;;1999.90;999.90;;;;;;;;;;4937432;29;20260;-71
2023/01/31 16:57:48;;;;;;;1999.90;999.90;;;;;;;;;;4938049;29;20249;-71
2023/01/31 17:00:33;;;;;;;1999.90;999.90;;;;;;;;;;4938040;29;20230;-71
2023/01/31 17:03:19;;;;;;;1999.90;999.90;;;;;;;;;;4938068;29;20574;-72
2023/01/31 17:06:05;;;;;;;1999.90;999.90;;;;;;;;;;4937409;29;20228;-71
2023/01/31 17:08:50;;;;;;;1999.90;999.90;;;;;;;;;;4938003;29;20216;-71
2023/01/31 17:11:35;;;;;;;1999.90;999.90;;;;;;;;;;4937816;29;20209;-71
2023/01/31 17:14:22;;;;;;;1999.90;999.90;;;;;;;;;;4937466;29;20237;-70
2023/01/31 17:17:10;;;;;;;1999.90;999.90;;;;;;;;;;4937840;29;20249;-70
2023/01/31 17:19:55;;;;;;;1999.90;999.90;;;;;;;;;;4937734;29;20260;-71
2023/01/31 17:22:40;;;;;;;1999.90;999.90;;;;;;;;;;4937711;29;20578;-71
2023/01/31 17:25:28;;;;;;;1999.90;999.90;;;;;;;;;;4936950;29;20237;-71
2023/01/31 17:28:13;;;;;;;1999.90;999.90;;;;;;;;;;4937628;29;20593;-70
2023/01/31 17:30:59;;;;;;;1999.90;999.90;;;;;;;;;;4937769;29;20212;-71
2023/01/31 17:33:44;;;;;;;1999.90;999.90;;;;;;;;;;4937494;29;20221;-71
2023/01/31 17:36:29;;;;;;;1999.90;999.90;;;;;;;;;;4937115;29;20209;-71
2023/01/31 17:39:15;;;;;;;1999.90;999.90;;;;;;;;;;4937385;29;20325;-71
2023/01/31 17:42:00;;;;;;;1999.90;999.90;;;;;;;;;;4936389;29;20414;-70
2023/01/31 17:44:45;;;;;;;1999.90;999.90;;;;;;;;;;4936977;29;20232;-71
2023/01/31 17:47:31;;;;;;;1999.90;999.90;;;;;;;;;;4936978;29;20353;-70
2023/01/31 17:50:16;;;;;;;1999.90;999.90;;;;;;;;;;4937224;29;20209;-70
2023/01/31 17:53:01;;;;;;;1999.90;999.90;;;;;;;;;;4936954;29;20794;-71
2023/01/31 17:55:46;;;;;;;1999.90;999.90;;;;;;;;;;4936627;29;20360;-70
2023/01/31 17:58:31;;;;;;;1999.90;999.90;;;;;;;;;;4936893;29;20213;-71
2023/01/31 18:01:16;;;;;;;1999.90;999.90;;;;;;;;;;4937050;29;20594;-70
2023/01/31 18:04:04;;;;;;;1999.90;999.90;;;;;;;;;;4936947;29;20228;-69
2023/01/31 18:06:49;;;;;;;1999.90;999.90;;;;;;;;;;4936746;29;20605;-69
2023/01/31 18:09:34;;;;;;;1999.90;999.90;;;;;;;;;;4936554;29;20209;-68
2023/01/31 18:12:19;;;;;;;1999.90;999.90;;;;;;;;;;4936866;29;20203;-69
2023/01/31 18:15:04;;;;;;;1999.90;999.90;;;;;;;;;;4936678;29;20280;-69
2023/01/31 18:17:49;;;;;;;1999.90;999.90;;;;;;;;;;4937263;29;20197;-69
2023/01/31 18:20:36;;;;;;;1999.90;999.90;;;;;;;;;;4937255;29;20582;-69
2023/01/31 18:23:21;;;;;;;1999.90;999.90;;;;;;;;;;4936957;29;20236;-69
2023/01/31 18:26:07;;;;;;;1999.90;999.90;;;;;;;;;;4936043;29;20307;-69
2023/01/31 18:28:54;;;;;;;1999.90;999.90;;;;;;;;;;4936523;29;20612;-69
2023/01/31 18:31:38;;;;;;;1999.90;999.90;;;;;;;;;;4936437;29;20678;-68
2023/01/31 18:34:24;;;;;;;1999.90;999.90;;;;;;;;;;4936003;29;20836;-69
2023/01/31 18:37:17;;;;;;;1999.90;999.90;;;;;;;;;;4936412;29;20699;-70